sensor_id;sensor_type;location;lat;lon;timestamp;P1;durP1;ratioP1;P2;durP2;ratioP2
18280;SDS011;9266;51.132;17.062;2022-08-16T00:00:05;10.40;;;8.90;;
18280;SDS011;9266;51.132;17.062;2022-08-16T00:02:34;11.27;;;8.97;;
18280;SDS011;9266;51.132;17.062;2022-08-16T00:05:03;10.93;;;8.80;;
18280;SDS011;9266;51.132;17.062;2022-08-16T00:07:32;10.33;;;9.23;;
18280;SDS011;9266;51.132;17.062;2022-08-16T00:10:00;9.83;;;8.83;;
18280;SDS011;9266;51.132;17.062;2022-08-16T00:12:28;10.87;;;9.60;;
18280;SDS011;9266;51.132;17.062;2022-08-16T00:14:55;10.37;;;9.20;;
18280;SDS011;9266;51.132;17.062;2022-08-16T00:17:23;11.40;;;9.43;;
18280;SDS011;9266;51.132;17.062;2022-08-16T00:19:51;10.07;;;9.03;;
18280;SDS011;9266;51.132;17.062;2022-08-16T00:22:19;10.30;;;9.20;;
18280;SDS011;9266;51.132;17.062;2022-08-16T00:24:47;10.63;;;9.53;;
18280;SDS011;9266;51.132;17.062;2022-08-16T00:27:15;10.90;;;9.00;;
18280;SDS011;9266;51.132;17.062;2022-08-16T00:29:42;10.63;;;9.07;;
18280;SDS011;9266;51.132;17.062;2022-08-16T00:32:09;13.37;;;9.60;;
18280;SDS011;9266;51.132;17.062;2022-08-16T00:34:37;11.10;;;9.30;;
18280;SDS011;9266;51.132;17.062;2022-08-16T00:37:04;10.87;;;9.77;;
18280;SDS011;9266;51.132;17.062;2022-08-16T00:39:31;10.80;;;9.33;;
18280;SDS011;9266;51.132;17.062;2022-08-16T00:42:00;11.77;;;9.37;;
18280;SDS011;9266;51.132;17.062;2022-08-16T00:44:27;10.60;;;9.50;;
18280;SDS011;9266;51.132;17.062;2022-08-16T00:46:55;11.63;;;9.30;;
18280;SDS011;9266;51.132;17.062;2022-08-16T00:49:25;11.77;;;8.87;;
18280;SDS011;9266;51.132;17.062;2022-08-16T00:51:53;12.13;;;10.37;;
18280;SDS011;9266;51.132;17.062;2022-08-16T00:54:20;12.10;;;9.83;;
18280;SDS011;9266;51.132;17.062;2022-08-16T00:56:49;12.43;;;10.77;;
18280;SDS011;9266;51.132;17.062;2022-08-16T00:59:19;11.80;;;10.60;;
18280;SDS011;9266;51.132;17.062;2022-08-16T01:01:46;12.30;;;10.13;;
18280;SDS011;9266;51.132;17.062;2022-08-16T01:04:15;13.23;;;10.80;;
18280;SDS011;9266;51.132;17.062;2022-08-16T01:06:45;12.50;;;10.57;;
18280;SDS011;9266;51.132;17.062;2022-08-16T01:09:12;13.43;;;11.17;;
18280;SDS011;9266;51.132;17.062;2022-08-16T01:11:40;12.60;;;11.03;;
18280;SDS011;9266;51.132;17.062;2022-08-16T01:14:09;12.27;;;10.60;;
18280;SDS011;9266;51.132;17.062;2022-08-16T01:16:38;13.73;;;11.57;;
18280;SDS011;9266;51.132;17.062;2022-08-16T01:19:09;15.87;;;11.23;;
18280;SDS011;9266;51.132;17.062;2022-08-16T01:21:41;12.23;;;10.93;;
18280;SDS011;9266;51.132;17.062;2022-08-16T01:24:17;12.90;;;11.57;;
18280;SDS011;9266;51.132;17.062;2022-08-16T01:26:46;14.43;;;11.23;;
18280;SDS011;9266;51.132;17.062;2022-08-16T01:29:15;12.37;;;10.93;;
18280;SDS011;9266;51.132;17.062;2022-08-16T01:31:43;13.60;;;10.83;;
18280;SDS011;9266;51.132;17.062;2022-08-16T01:34:11;13.40;;;10.97;;
18280;SDS011;9266;51.132;17.062;2022-08-16T01:36:39;13.87;;;11.27;;
18280;SDS011;9266;51.132;17.062;2022-08-16T01:39:07;13.80;;;11.60;;
18280;SDS011;9266;51.132;17.062;2022-08-16T01:41:37;12.60;;;11.30;;
18280;SDS011;9266;51.132;17.062;2022-08-16T01:44:04;16.57;;;10.90;;
18280;SDS011;9266;51.132;17.062;2022-08-16T01:46:33;13.50;;;11.80;;
18280;SDS011;9266;51.132;17.062;2022-08-16T01:49:03;13.27;;;11.87;;
18280;SDS011;9266;51.132;17.062;2022-08-16T01:51:30;13.50;;;11.70;;
18280;SDS011;9266;51.132;17.062;2022-08-16T01:53:58;16.67;;;12.20;;
18280;SDS011;9266;51.132;17.062;2022-08-16T01:56:26;14.43;;;12.63;;
18280;SDS011;9266;51.132;17.062;2022-08-16T01:58:56;13.90;;;12.23;;
18280;SDS011;9266;51.132;17.062;2022-08-16T02:01:23;14.73;;;11.50;;
18280;SDS011;9266;51.132;17.062;2022-08-16T02:03:51;13.67;;;11.70;;
18280;SDS011;9266;51.132;17.062;2022-08-16T02:06:18;14.70;;;11.47;;
18280;SDS011;9266;51.132;17.062;2022-08-16T02:08:45;12.50;;;10.90;;
18280;SDS011;9266;51.132;17.062;2022-08-16T02:11:13;13.73;;;10.73;;
18280;SDS011;9266;51.132;17.062;2022-08-16T02:13:40;13.30;;;11.90;;
18280;SDS011;9266;51.132;17.062;2022-08-16T02:16:09;13.20;;;11.77;;
18280;SDS011;9266;51.132;17.062;2022-08-16T02:18:37;15.33;;;12.00;;
18280;SDS011;9266;51.132;17.062;2022-08-16T02:21:04;14.20;;;12.30;;
18280;SDS011;9266;51.132;17.062;2022-08-16T02:23:32;13.83;;;12.17;;
18280;SDS011;9266;51.132;17.062;2022-08-16T02:26:00;14.63;;;12.13;;
18280;SDS011;9266;51.132;17.062;2022-08-16T02:28:27;17.03;;;12.57;;
18280;SDS011;9266;51.132;17.062;2022-08-16T02:30:56;14.47;;;11.70;;
18280;SDS011;9266;51.132;17.062;2022-08-16T02:33:25;17.00;;;12.73;;
18280;SDS011;9266;51.132;17.062;2022-08-16T02:35:52;14.47;;;12.23;;
18280;SDS011;9266;51.132;17.062;2022-08-16T02:38:19;14.43;;;11.67;;
18280;SDS011;9266;51.132;17.062;2022-08-16T02:40:47;13.40;;;12.00;;
18280;SDS011;9266;51.132;17.062;2022-08-16T02:43:14;13.17;;;11.77;;
18280;SDS011;9266;51.132;17.062;2022-08-16T02:45:41;14.43;;;11.97;;
18280;SDS011;9266;51.132;17.062;2022-08-16T02:48:09;14.93;;;12.47;;
18280;SDS011;9266;51.132;17.062;2022-08-16T02:50:37;16.27;;;12.30;;
18280;SDS011;9266;51.132;17.062;2022-08-16T02:53:04;14.83;;;12.20;;
18280;SDS011;9266;51.132;17.062;2022-08-16T02:55:32;13.47;;;12.03;;
18280;SDS011;9266;51.132;17.062;2022-08-16T02:57:59;14.17;;;11.70;;
18280;SDS011;9266;51.132;17.062;2022-08-16T03:00:26;15.37;;;13.13;;
18280;SDS011;9266;51.132;17.062;2022-08-16T03:02:54;15.93;;;12.57;;
18280;SDS011;9266;51.132;17.062;2022-08-16T03:05:22;15.60;;;13.13;;
18280;SDS011;9266;51.132;17.062;2022-08-16T03:07:51;14.00;;;12.50;;
18280;SDS011;9266;51.132;17.062;2022-08-16T03:10:18;13.73;;;11.73;;
18280;SDS011;9266;51.132;17.062;2022-08-16T03:12:46;16.07;;;13.33;;
18280;SDS011;9266;51.132;17.062;2022-08-16T03:15:14;14.13;;;12.03;;
18280;SDS011;9266;51.132;17.062;2022-08-16T03:17:42;19.90;;;12.63;;
18280;SDS011;9266;51.132;17.062;2022-08-16T03:20:11;14.20;;;12.70;;
18280;SDS011;9266;51.132;17.062;2022-08-16T03:22:39;15.40;;;12.57;;
18280;SDS011;9266;51.132;17.062;2022-08-16T03:25:09;14.67;;;12.37;;
18280;SDS011;9266;51.132;17.062;2022-08-16T03:27:37;16.97;;;12.77;;
18280;SDS011;9266;51.132;17.062;2022-08-16T03:30:06;16.53;;;12.93;;
18280;SDS011;9266;51.132;17.062;2022-08-16T03:32:34;16.47;;;13.37;;
18280;SDS011;9266;51.132;17.062;2022-08-16T03:35:02;16.90;;;13.17;;
18280;SDS011;9266;51.132;17.062;2022-08-16T03:37:29;18.27;;;13.93;;
18280;SDS011;9266;51.132;17.062;2022-08-16T03:39:57;15.87;;;12.47;;
18280;SDS011;9266;51.132;17.062;2022-08-16T03:42:25;15.17;;;12.93;;
18280;SDS011;9266;51.132;17.062;2022-08-16T03:44:53;17.50;;;12.83;;
18280;SDS011;9266;51.132;17.062;2022-08-16T03:47:20;14.63;;;12.90;;
18280;SDS011;9266;51.132;17.062;2022-08-16T03:49:47;16.30;;;13.27;;
18280;SDS011;9266;51.132;17.062;2022-08-16T03:52:15;17.53;;;13.10;;
18280;SDS011;9266;51.132;17.062;2022-08-16T03:54:42;15.90;;;12.90;;
18280;SDS011;9266;51.132;17.062;2022-08-16T03:57:09;15.93;;;13.17;;
18280;SDS011;9266;51.132;17.062;2022-08-16T03:59:38;15.73;;;13.10;;
18280;SDS011;9266;51.132;17.062;2022-08-16T04:02:05;18.50;;;14.13;;
18280;SDS011;9266;51.132;17.062;2022-08-16T04:04:32;17.93;;;14.80;;
18280;SDS011;9266;51.132;17.062;2022-08-16T04:07:00;18.37;;;13.37;;
18280;SDS011;9266;51.132;17.062;2022-08-16T04:09:28;15.00;;;12.80;;
18280;SDS011;9266;51.132;17.062;2022-08-16T04:11:55;16.07;;;12.97;;
18280;SDS011;9266;51.132;17.062;2022-08-16T04:14:22;16.87;;;13.53;;
18280;SDS011;9266;51.132;17.062;2022-08-16T04:16:52;14.27;;;11.87;;
18280;SDS011;9266;51.132;17.062;2022-08-16T04:19:19;15.13;;;12.83;;
18280;SDS011;9266;51.132;17.062;2022-08-16T04:21:50;14.37;;;12.10;;
18280;SDS011;9266;51.132;17.062;2022-08-16T04:24:17;15.40;;;12.47;;
18280;SDS011;9266;51.132;17.062;2022-08-16T04:26:44;15.40;;;11.10;;
18280;SDS011;9266;51.132;17.062;2022-08-16T04:29:12;11.93;;;10.20;;
18280;SDS011;9266;51.132;17.062;2022-08-16T04:31:39;12.63;;;10.13;;
18280;SDS011;9266;51.132;17.062;2022-08-16T04:34:08;11.37;;;9.53;;
18280;SDS011;9266;51.132;17.062;2022-08-16T04:36:34;16.27;;;10.30;;
18280;SDS011;9266;51.132;17.062;2022-08-16T04:39:02;10.17;;;9.07;;
18280;SDS011;9266;51.132;17.062;2022-08-16T04:41:29;15.07;;;10.43;;
18280;SDS011;9266;51.132;17.062;2022-08-16T04:43:58;13.93;;;10.63;;
18280;SDS011;9266;51.132;17.062;2022-08-16T04:46:25;11.63;;;8.97;;
18280;SDS011;9266;51.132;17.062;2022-08-16T04:48:52;12.57;;;9.73;;
18280;SDS011;9266;51.132;17.062;2022-08-16T04:51:21;14.70;;;10.73;;
18280;SDS011;9266;51.132;17.062;2022-08-16T04:53:49;15.18;;;9.68;;
18280;SDS011;9266;51.132;17.062;2022-08-16T04:56:16;11.27;;;9.15;;
18280;SDS011;9266;51.132;17.062;2022-08-16T04:58:45;11.73;;;10.05;;
18280;SDS011;9266;51.132;17.062;2022-08-16T05:01:12;14.50;;;11.40;;
18280;SDS011;9266;51.132;17.062;2022-08-16T05:03:41;13.05;;;10.13;;
18280;SDS011;9266;51.132;17.062;2022-08-16T05:06:09;11.10;;;9.40;;
18280;SDS011;9266;51.132;17.062;2022-08-16T05:08:37;12.00;;;9.43;;
18280;SDS011;9266;51.132;17.062;2022-08-16T05:11:05;11.40;;;8.90;;
18280;SDS011;9266;51.132;17.062;2022-08-16T05:13:33;15.93;;;9.30;;
18280;SDS011;9266;51.132;17.062;2022-08-16T05:16:02;10.85;;;9.35;;
18280;SDS011;9266;51.132;17.062;2022-08-16T05:18:29;11.23;;;9.23;;
18280;SDS011;9266;51.132;17.062;2022-08-16T05:20:57;11.40;;;9.95;;
18280;SDS011;9266;51.132;17.062;2022-08-16T05:23:25;10.55;;;9.40;;
18280;SDS011;9266;51.132;17.062;2022-08-16T05:25:53;14.30;;;10.02;;
18280;SDS011;9266;51.132;17.062;2022-08-16T05:28:21;12.57;;;9.40;;
18280;SDS011;9266;51.132;17.062;2022-08-16T05:30:48;12.57;;;9.60;;
18280;SDS011;9266;51.132;17.062;2022-08-16T05:33:16;12.10;;;9.07;;
18280;SDS011;9266;51.132;17.062;2022-08-16T05:35:45;12.57;;;9.57;;
18280;SDS011;9266;51.132;17.062;2022-08-16T05:38:13;13.65;;;9.52;;
18280;SDS011;9266;51.132;17.062;2022-08-16T05:40:40;12.07;;;9.57;;
18280;SDS011;9266;51.132;17.062;2022-08-16T05:43:09;12.40;;;9.52;;
18280;SDS011;9266;51.132;17.062;2022-08-16T05:45:36;13.32;;;9.50;;
18280;SDS011;9266;51.132;17.062;2022-08-16T05:48:04;14.13;;;9.80;;
18280;SDS011;9266;51.132;17.062;2022-08-16T05:50:31;14.50;;;10.02;;
18280;SDS011;9266;51.132;17.062;2022-08-16T05:52:58;15.93;;;9.80;;
18280;SDS011;9266;51.132;17.062;2022-08-16T05:55:25;11.18;;;9.57;;
18280;SDS011;9266;51.132;17.062;2022-08-16T05:57:53;19.13;;;12.88;;
18280;SDS011;9266;51.132;17.062;2022-08-16T06:00:22;12.38;;;9.68;;
18280;SDS011;9266;51.132;17.062;2022-08-16T06:02:49;10.90;;;9.80;;
18280;SDS011;9266;51.132;17.062;2022-08-16T06:05:17;11.60;;;9.60;;
18280;SDS011;9266;51.132;17.062;2022-08-16T06:07:44;12.30;;;9.43;;
18280;SDS011;9266;51.132;17.062;2022-08-16T06:10:11;11.32;;;8.80;;
18280;SDS011;9266;51.132;17.062;2022-08-16T06:12:39;11.40;;;9.40;;
18280;SDS011;9266;51.132;17.062;2022-08-16T06:15:08;9.63;;;8.60;;
18280;SDS011;9266;51.132;17.062;2022-08-16T06:17:37;10.30;;;8.35;;
18280;SDS011;9266;51.132;17.062;2022-08-16T06:20:05;9.43;;;8.32;;
18280;SDS011;9266;51.132;17.062;2022-08-16T06:22:32;10.02;;;7.95;;
18280;SDS011;9266;51.132;17.062;2022-08-16T06:25:00;9.50;;;8.35;;
18280;SDS011;9266;51.132;17.062;2022-08-16T06:27:28;8.38;;;7.10;;
18280;SDS011;9266;51.132;17.062;2022-08-16T06:29:55;8.63;;;7.82;;
18280;SDS011;9266;51.132;17.062;2022-08-16T06:32:22;8.77;;;7.20;;
18280;SDS011;9266;51.132;17.062;2022-08-16T06:34:51;9.48;;;7.78;;
18280;SDS011;9266;51.132;17.062;2022-08-16T06:37:18;8.20;;;7.30;;
18280;SDS011;9266;51.132;17.062;2022-08-16T06:39:45;8.40;;;7.60;;
18280;SDS011;9266;51.132;17.062;2022-08-16T06:42:13;8.50;;;7.25;;
18280;SDS011;9266;51.132;17.062;2022-08-16T06:44:40;8.25;;;7.45;;
18280;SDS011;9266;51.132;17.062;2022-08-16T06:47:07;9.45;;;8.13;;
18280;SDS011;9266;51.132;17.062;2022-08-16T06:49:35;9.00;;;7.95;;
18280;SDS011;9266;51.132;17.062;2022-08-16T06:52:03;9.15;;;7.20;;
18280;SDS011;9266;51.132;17.062;2022-08-16T06:54:31;11.13;;;7.80;;
18280;SDS011;9266;51.132;17.062;2022-08-16T06:56:58;8.55;;;7.00;;
18280;SDS011;9266;51.132;17.062;2022-08-16T06:59:26;9.98;;;6.60;;
18280;SDS011;9266;51.132;17.062;2022-08-16T07:01:53;8.55;;;7.13;;
18280;SDS011;9266;51.132;17.062;2022-08-16T07:04:21;11.40;;;7.57;;
18280;SDS011;9266;51.132;17.062;2022-08-16T07:06:48;7.95;;;6.68;;
18280;SDS011;9266;51.132;17.062;2022-08-16T07:09:17;7.10;;;6.40;;
18280;SDS011;9266;51.132;17.062;2022-08-16T07:11:44;10.02;;;7.10;;
18280;SDS011;9266;51.132;17.062;2022-08-16T07:14:11;13.35;;;6.88;;
18280;SDS011;9266;51.132;17.062;2022-08-16T07:16:39;7.28;;;6.57;;
18280;SDS011;9266;51.132;17.062;2022-08-16T07:19:07;7.85;;;6.60;;
18280;SDS011;9266;51.132;17.062;2022-08-16T07:21:34;11.20;;;7.90;;
18280;SDS011;9266;51.132;17.062;2022-08-16T07:24:01;10.32;;;6.72;;
18280;SDS011;9266;51.132;17.062;2022-08-16T07:26:31;6.85;;;6.15;;
18280;SDS011;9266;51.132;17.062;2022-08-16T07:28:58;7.95;;;6.72;;
18280;SDS011;9266;51.132;17.062;2022-08-16T07:31:26;7.35;;;6.47;;
18280;SDS011;9266;51.132;17.062;2022-08-16T07:33:53;7.53;;;6.05;;
18280;SDS011;9266;51.132;17.062;2022-08-16T07:36:20;8.82;;;6.18;;
18280;SDS011;9266;51.132;17.062;2022-08-16T07:38:48;9.57;;;7.05;;
18280;SDS011;9266;51.132;17.062;2022-08-16T07:41:15;9.27;;;6.70;;
18280;SDS011;9266;51.132;17.062;2022-08-16T07:43:44;7.75;;;6.40;;
18280;SDS011;9266;51.132;17.062;2022-08-16T07:46:14;7.68;;;6.05;;
18280;SDS011;9266;51.132;17.062;2022-08-16T07:48:41;8.23;;;6.05;;
18280;SDS011;9266;51.132;17.062;2022-08-16T07:51:08;8.85;;;6.25;;
18280;SDS011;9266;51.132;17.062;2022-08-16T07:53:36;8.73;;;5.97;;
18280;SDS011;9266;51.132;17.062;2022-08-16T07:56:03;9.25;;;6.60;;
18280;SDS011;9266;51.132;17.062;2022-08-16T07:58:31;7.53;;;6.18;;
18280;SDS011;9266;51.132;17.062;2022-08-16T08:00:59;8.70;;;6.43;;
18280;SDS011;9266;51.132;17.062;2022-08-16T08:03:29;7.00;;;5.88;;
18280;SDS011;9266;51.132;17.062;2022-08-16T08:05:58;9.85;;;5.93;;
18280;SDS011;9266;51.132;17.062;2022-08-16T08:08:25;8.65;;;6.40;;
18280;SDS011;9266;51.132;17.062;2022-08-16T08:10:53;7.88;;;6.28;;
18280;SDS011;9266;51.132;17.062;2022-08-16T08:13:20;6.93;;;6.22;;
18280;SDS011;9266;51.132;17.062;2022-08-16T08:15:47;8.55;;;6.43;;
18280;SDS011;9266;51.132;17.062;2022-08-16T08:18:16;7.80;;;6.35;;
18280;SDS011;9266;51.132;17.062;2022-08-16T08:20:44;7.95;;;6.30;;
18280;SDS011;9266;51.132;17.062;2022-08-16T08:23:11;6.88;;;6.18;;
18280;SDS011;9266;51.132;17.062;2022-08-16T08:25:43;7.00;;;5.93;;
18280;SDS011;9266;51.132;17.062;2022-08-16T08:28:10;6.40;;;5.80;;
18280;SDS011;9266;51.132;17.062;2022-08-16T08:30:38;7.68;;;6.32;;
18280;SDS011;9266;51.132;17.062;2022-08-16T08:33:05;7.60;;;6.55;;
18280;SDS011;9266;51.132;17.062;2022-08-16T08:35:34;7.90;;;6.18;;
18280;SDS011;9266;51.132;17.062;2022-08-16T08:38:02;7.32;;;6.32;;
18280;SDS011;9266;51.132;17.062;2022-08-16T08:40:32;7.90;;;6.38;;
18280;SDS011;9266;51.132;17.062;2022-08-16T08:43:00;7.95;;;6.38;;
18280;SDS011;9266;51.132;17.062;2022-08-16T08:45:29;8.25;;;6.45;;
18280;SDS011;9266;51.132;17.062;2022-08-16T08:47:56;8.23;;;7.03;;
18280;SDS011;9266;51.132;17.062;2022-08-16T08:50:23;7.30;;;6.60;;
18280;SDS011;9266;51.132;17.062;2022-08-16T08:52:53;8.13;;;6.60;;
18280;SDS011;9266;51.132;17.062;2022-08-16T08:55:20;8.13;;;6.63;;
18280;SDS011;9266;51.132;17.062;2022-08-16T08:57:48;7.45;;;6.75;;
18280;SDS011;9266;51.132;17.062;2022-08-16T09:00:18;7.40;;;6.70;;
18280;SDS011;9266;51.132;17.062;2022-08-16T09:02:48;10.07;;;6.03;;
18280;SDS011;9266;51.132;17.062;2022-08-16T09:05:19;6.97;;;6.28;;
18280;SDS011;9266;51.132;17.062;2022-08-16T09:07:48;10.02;;;7.40;;
18280;SDS011;9266;51.132;17.062;2022-08-16T09:10:17;8.55;;;7.20;;
18280;SDS011;9266;51.132;17.062;2022-08-16T09:12:45;8.18;;;7.18;;
18280;SDS011;9266;51.132;17.062;2022-08-16T09:15:14;7.70;;;6.90;;
18280;SDS011;9266;51.132;17.062;2022-08-16T09:17:42;7.82;;;7.07;;
18280;SDS011;9266;51.132;17.062;2022-08-16T09:20:09;7.97;;;7.18;;
18280;SDS011;9266;51.132;17.062;2022-08-16T09:22:39;8.88;;;8.07;;
18280;SDS011;9266;51.132;17.062;2022-08-16T09:25:08;8.45;;;7.60;;
18280;SDS011;9266;51.132;17.062;2022-08-16T09:27:37;9.27;;;8.23;;
18280;SDS011;9266;51.132;17.062;2022-08-16T09:30:05;8.57;;;7.65;;
18280;SDS011;9266;51.132;17.062;2022-08-16T09:32:33;9.02;;;7.45;;
18280;SDS011;9266;51.132;17.062;2022-08-16T09:35:00;9.25;;;8.23;;
18280;SDS011;9266;51.132;17.062;2022-08-16T09:37:29;8.60;;;7.85;;
18280;SDS011;9266;51.132;17.062;2022-08-16T09:39:56;9.23;;;8.15;;
18280;SDS011;9266;51.132;17.062;2022-08-16T09:42:24;9.13;;;8.23;;
18280;SDS011;9266;51.132;17.062;2022-08-16T09:44:53;8.25;;;7.25;;
18280;SDS011;9266;51.132;17.062;2022-08-16T09:47:20;8.68;;;7.65;;
18280;SDS011;9266;51.132;17.062;2022-08-16T09:49:48;8.57;;;7.57;;
18280;SDS011;9266;51.132;17.062;2022-08-16T09:52:15;8.30;;;7.50;;
18280;SDS011;9266;51.132;17.062;2022-08-16T09:54:43;8.68;;;7.80;;
18280;SDS011;9266;51.132;17.062;2022-08-16T09:57:10;9.30;;;8.30;;
18280;SDS011;9266;51.132;17.062;2022-08-16T09:59:38;9.68;;;7.95;;
18280;SDS011;9266;51.132;17.062;2022-08-16T10:02:07;9.52;;;7.78;;
18280;SDS011;9266;51.132;17.062;2022-08-16T10:04:34;8.57;;;7.68;;
18280;SDS011;9266;51.132;17.062;2022-08-16T10:07:02;9.20;;;7.88;;
18280;SDS011;9266;51.132;17.062;2022-08-16T10:09:30;8.98;;;7.85;;
18280;SDS011;9266;51.132;17.062;2022-08-16T10:11:59;8.68;;;7.90;;
18280;SDS011;9266;51.132;17.062;2022-08-16T10:14:44;9.85;;;8.93;;
18280;SDS011;9266;51.132;17.062;2022-08-16T10:17:13;11.52;;;7.97;;
18280;SDS011;9266;51.132;17.062;2022-08-16T10:19:41;10.13;;;9.27;;
18280;SDS011;9266;51.132;17.062;2022-08-16T10:22:11;10.95;;;9.65;;
18280;SDS011;9266;51.132;17.062;2022-08-16T10:24:38;8.80;;;7.90;;
18280;SDS011;9266;51.132;17.062;2022-08-16T10:27:06;9.38;;;8.38;;
18280;SDS011;9266;51.132;17.062;2022-08-16T10:29:33;8.77;;;7.97;;
18280;SDS011;9266;51.132;17.062;2022-08-16T10:32:01;8.27;;;7.57;;
18280;SDS011;9266;51.132;17.062;2022-08-16T10:34:31;8.77;;;7.97;;
18280;SDS011;9266;51.132;17.062;2022-08-16T10:36:58;9.13;;;8.25;;
18280;SDS011;9266;51.132;17.062;2022-08-16T10:39:26;8.38;;;7.55;;
18280;SDS011;9266;51.132;17.062;2022-08-16T10:41:53;10.07;;;8.65;;
18280;SDS011;9266;51.132;17.062;2022-08-16T10:44:21;9.60;;;8.35;;
18280;SDS011;9266;51.132;17.062;2022-08-16T10:46:48;9.07;;;8.18;;
18280;SDS011;9266;51.132;17.062;2022-08-16T10:49:15;9.45;;;8.52;;
18280;SDS011;9266;51.132;17.062;2022-08-16T10:51:44;8.50;;;7.55;;
18280;SDS011;9266;51.132;17.062;2022-08-16T10:54:11;9.25;;;8.05;;
18280;SDS011;9266;51.132;17.062;2022-08-16T10:56:39;11.00;;;8.35;;
18280;SDS011;9266;51.132;17.062;2022-08-16T10:59:08;8.93;;;8.05;;
18280;SDS011;9266;51.132;17.062;2022-08-16T11:01:35;8.15;;;7.32;;
18280;SDS011;9266;51.132;17.062;2022-08-16T11:04:02;8.20;;;7.35;;
18280;SDS011;9266;51.132;17.062;2022-08-16T11:06:31;12.50;;;7.93;;
18280;SDS011;9266;51.132;17.062;2022-08-16T11:08:59;8.25;;;7.45;;
18280;SDS011;9266;51.132;17.062;2022-08-16T11:11:27;8.52;;;7.72;;
18280;SDS011;9266;51.132;17.062;2022-08-16T11:13:54;8.55;;;7.70;;
18280;SDS011;9266;51.132;17.062;2022-08-16T11:16:21;10.60;;;7.88;;
18280;SDS011;9266;51.132;17.062;2022-08-16T11:18:49;9.13;;;8.32;;
18280;SDS011;9266;51.132;17.062;2022-08-16T11:21:16;7.93;;;7.22;;
18280;SDS011;9266;51.132;17.062;2022-08-16T11:23:44;8.20;;;7.50;;
18280;SDS011;9266;51.132;17.062;2022-08-16T11:26:13;7.38;;;6.68;;
18280;SDS011;9266;51.132;17.062;2022-08-16T11:28:40;8.38;;;7.22;;
18280;SDS011;9266;51.132;17.062;2022-08-16T11:31:08;7.82;;;7.07;;
18280;SDS011;9266;51.132;17.062;2022-08-16T11:33:35;9.50;;;7.05;;
18280;SDS011;9266;51.132;17.062;2022-08-16T11:36:03;8.13;;;6.75;;
18280;SDS011;9266;51.132;17.062;2022-08-16T11:38:30;7.55;;;6.90;;
18280;SDS011;9266;51.132;17.062;2022-08-16T11:41:00;7.95;;;6.80;;
18280;SDS011;9266;51.132;17.062;2022-08-16T11:43:29;7.93;;;7.22;;
18280;SDS011;9266;51.132;17.062;2022-08-16T11:45:59;9.00;;;8.02;;
18280;SDS011;9266;51.132;17.062;2022-08-16T11:48:29;7.95;;;7.20;;
18280;SDS011;9266;51.132;17.062;2022-08-16T11:50:57;9.60;;;7.63;;
18280;SDS011;9266;51.132;17.062;2022-08-16T11:53:26;15.27;;;10.70;;
18280;SDS011;9266;51.132;17.062;2022-08-16T11:55:54;8.80;;;7.88;;
18280;SDS011;9266;51.132;17.062;2022-08-16T11:58:22;8.25;;;7.35;;
18280;SDS011;9266;51.132;17.062;2022-08-16T12:00:52;7.10;;;6.20;;
18280;SDS011;9266;51.132;17.062;2022-08-16T12:03:22;7.53;;;6.82;;
18280;SDS011;9266;51.132;17.062;2022-08-16T12:05:50;7.28;;;5.95;;
18280;SDS011;9266;51.132;17.062;2022-08-16T12:08:17;10.32;;;7.18;;
18280;SDS011;9266;51.132;17.062;2022-08-16T12:10:45;7.55;;;6.85;;
18280;SDS011;9266;51.132;17.062;2022-08-16T12:13:12;7.93;;;7.00;;
18280;SDS011;9266;51.132;17.062;2022-08-16T12:15:40;7.53;;;6.60;;
18280;SDS011;9266;51.132;17.062;2022-08-16T12:18:09;6.90;;;6.20;;
18280;SDS011;9266;51.132;17.062;2022-08-16T12:20:39;7.95;;;7.13;;
18280;SDS011;9266;51.132;17.062;2022-08-16T12:23:08;8.18;;;7.25;;
18280;SDS011;9266;51.132;17.062;2022-08-16T12:25:35;7.72;;;6.82;;
18280;SDS011;9266;51.132;17.062;2022-08-16T12:28:03;9.05;;;6.35;;
18280;SDS011;9266;51.132;17.062;2022-08-16T12:30:33;9.70;;;6.57;;
18280;SDS011;9266;51.132;17.062;2022-08-16T12:33:03;6.65;;;6.05;;
18280;SDS011;9266;51.132;17.062;2022-08-16T12:35:37;7.30;;;6.20;;
18280;SDS011;9266;51.132;17.062;2022-08-16T12:38:05;7.63;;;6.55;;
18280;SDS011;9266;51.132;17.062;2022-08-16T12:40:34;8.50;;;6.35;;
18280;SDS011;9266;51.132;17.062;2022-08-16T12:43:04;6.78;;;6.07;;
18280;SDS011;9266;51.132;17.062;2022-08-16T12:45:33;7.82;;;6.30;;
18280;SDS011;9266;51.132;17.062;2022-08-16T12:48:02;8.20;;;6.43;;
18280;SDS011;9266;51.132;17.062;2022-08-16T12:50:49;6.88;;;6.18;;
18280;SDS011;9266;51.132;17.062;2022-08-16T12:53:17;6.63;;;6.03;;
18280;SDS011;9266;51.132;17.062;2022-08-16T12:55:45;7.00;;;6.40;;
18280;SDS011;9266;51.132;17.062;2022-08-16T12:58:12;7.53;;;6.35;;
18280;SDS011;9266;51.132;17.062;2022-08-16T13:00:40;7.65;;;6.50;;
18280;SDS011;9266;51.132;17.062;2022-08-16T13:03:08;7.43;;;6.65;;
18280;SDS011;9266;51.132;17.062;2022-08-16T13:05:37;12.13;;;6.93;;
18280;SDS011;9266;51.132;17.062;2022-08-16T13:08:08;7.72;;;6.50;;
18280;SDS011;9266;51.132;17.062;2022-08-16T13:10:35;8.70;;;6.15;;
18280;SDS011;9266;51.132;17.062;2022-08-16T13:13:03;6.70;;;6.10;;
18280;SDS011;9266;51.132;17.062;2022-08-16T13:15:30;9.30;;;7.13;;
18280;SDS011;9266;51.132;17.062;2022-08-16T13:17:58;9.70;;;7.70;;
18280;SDS011;9266;51.132;17.062;2022-08-16T13:20:25;6.78;;;6.07;;
18280;SDS011;9266;51.132;17.062;2022-08-16T13:22:56;7.47;;;6.78;;
18280;SDS011;9266;51.132;17.062;2022-08-16T13:25:27;9.98;;;6.70;;
18280;SDS011;9266;51.132;17.062;2022-08-16T13:27:56;7.00;;;6.05;;
18280;SDS011;9266;51.132;17.062;2022-08-16T13:30:23;6.60;;;5.47;;
18280;SDS011;9266;51.132;17.062;2022-08-16T13:32:52;7.13;;;6.40;;
18280;SDS011;9266;51.132;17.062;2022-08-16T13:35:19;8.20;;;6.10;;
18280;SDS011;9266;51.132;17.062;2022-08-16T13:37:48;7.07;;;6.40;;
18280;SDS011;9266;51.132;17.062;2022-08-16T13:40:15;8.32;;;6.40;;
18280;SDS011;9266;51.132;17.062;2022-08-16T13:42:44;6.82;;;6.13;;
18280;SDS011;9266;51.132;17.062;2022-08-16T13:45:12;6.90;;;6.30;;
18280;SDS011;9266;51.132;17.062;2022-08-16T13:47:40;6.90;;;6.20;;
18280;SDS011;9266;51.132;17.062;2022-08-16T13:50:08;7.00;;;6.30;;
18280;SDS011;9266;51.132;17.062;2022-08-16T13:52:37;7.80;;;6.35;;
18280;SDS011;9266;51.132;17.062;2022-08-16T13:55:04;7.43;;;6.35;;
18280;SDS011;9266;51.132;17.062;2022-08-16T13:57:32;6.93;;;6.22;;
18280;SDS011;9266;51.132;17.062;2022-08-16T14:00:01;7.35;;;6.60;;
18280;SDS011;9266;51.132;17.062;2022-08-16T14:02:29;6.63;;;6.03;;
18280;SDS011;9266;51.132;17.062;2022-08-16T14:04:56;6.93;;;6.22;;
18280;SDS011;9266;51.132;17.062;2022-08-16T14:07:23;6.80;;;6.07;;
18280;SDS011;9266;51.132;17.062;2022-08-16T14:09:51;6.43;;;5.85;;
18280;SDS011;9266;51.132;17.062;2022-08-16T14:12:19;7.78;;;6.22;;
18280;SDS011;9266;51.132;17.062;2022-08-16T14:14:48;7.53;;;5.88;;
18280;SDS011;9266;51.132;17.062;2022-08-16T14:17:18;6.60;;;6.00;;
18280;SDS011;9266;51.132;17.062;2022-08-16T14:19:46;6.53;;;5.93;;
18280;SDS011;9266;51.132;17.062;2022-08-16T14:22:15;10.18;;;5.80;;
18280;SDS011;9266;51.132;17.062;2022-08-16T14:24:45;6.43;;;5.80;;
18280;SDS011;9266;51.132;17.062;2022-08-16T14:27:13;7.03;;;6.13;;
18280;SDS011;9266;51.132;17.062;2022-08-16T14:29:41;6.93;;;6.15;;
18280;SDS011;9266;51.132;17.062;2022-08-16T14:32:08;7.15;;;6.45;;
18280;SDS011;9266;51.132;17.062;2022-08-16T14:34:37;8.88;;;6.63;;
18280;SDS011;9266;51.132;17.062;2022-08-16T14:37:04;7.63;;;6.38;;
18280;SDS011;9266;51.132;17.062;2022-08-16T14:39:31;6.00;;;5.43;;
18280;SDS011;9266;51.132;17.062;2022-08-16T14:42:05;6.68;;;5.97;;